Time;durP1;ratioP1;P1;durP2;ratioP2;P2;SDS_P1;SDS_P2;PMS_P1;PMS_P2;Temp;Humidity;BMP_temperature;BMP_pressure;BME280_temperature;BME280_humidity;BME280_pressure;Samples;Min_cycle;Max_cycle;Signal;HPM_P1;HPM_P2
2023/08/11 00:01:18;;;;;;;;;;;;;;;20.89;46.64;101965.78;4844261;29;123843;-78
2023/08/11 00:03:45;;;;;;;;;;;;;;;20.88;46.61;101974.84;4852760;29;123374;-78
2023/08/11 00:06:16;;;;;;;;;;;;;;;20.86;46.77;101968.72;4854068;29;114381;-79
2023/08/11 00:08:43;;;;;;;;;;;;;;;20.84;46.72;101967.97;4838668;29;113977;-79
2023/08/11 00:11:12;;;;;;;;;;;;;;;20.84;46.84;101973.34;4857503;29;124190;-79
2023/08/11 00:13:40;;;;;;;;;;;;;;;20.80;46.81;101970.84;4832921;29;124748;-79
2023/08/11 00:16:07;;;;;;;;;;;;;;;20.79;46.81;101970.97;4835274;29;114874;-79
2023/08/11 00:18:34;;;;;;;;;;;;;;;20.76;46.89;101961.28;4838112;29;112179;-79
2023/08/11 00:21:02;;;;;;;;;;;;;;;20.75;46.95;101964.94;4826487;29;124420;-79
2023/08/11 00:23:30;;;;;;;;;;;;;;;20.74;46.83;101963.22;4839368;29;124466;-79
2023/08/11 00:25:57;;;;;;;;;;;;;;;20.71;46.82;101960.72;4824336;29;112967;-79
2023/08/11 00:28:26;;;;;;;;;;;;;;;20.68;46.92;101963.66;4826182;29;113031;-79
2023/08/11 00:30:54;;;;;;;;;;;;;;;20.67;46.90;101956.53;4838160;29;124876;-78
2023/08/11 00:33:21;;;;;;;;;;;;;;;20.64;46.98;101962.13;4837955;29;124078;-79
2023/08/11 00:35:48;;;;;;;;;;;;;;;20.60;46.95;101968.69;4835173;29;114356;-79
2023/08/11 00:38:15;;;;;;;;;;;;;;;20.56;47.08;101959.09;4826715;29;112888;-79
2023/08/11 00:40:42;;;;;;;;;;;;;;;20.54;47.03;101961.03;4836969;29;122779;-79
2023/08/11 00:43:11;;;;;;;;;;;;;;;20.52;47.08;101965.66;4838231;29;124330;-79
2023/08/11 00:45:39;;;;;;;;;;;;;;;20.50;47.15;101965.75;4836809;29;115321;-79
2023/08/11 00:48:07;;;;;;;;;;;;;;;20.48;47.24;101956.06;4832688;29;113968;-78
2023/08/11 00:50:34;;;;;;;;;;;;;;;20.47;47.20;101960.56;4853481;29;122604;-79
2023/08/11 00:53:01;;;;;;;;;;;;;;;20.47;47.11;101955.19;4840543;29;123573;-78
2023/08/11 00:55:28;;;;;;;;;;;;;;;20.47;47.25;101954.34;4853154;29;114748;-79
2023/08/11 00:57:55;;;;;;;;;;;;;;;20.44;47.25;101950.03;4835738;29;113910;-78
2023/08/11 01:00:24;;;;;;;;;;;;;;;20.42;47.21;101958.22;4838748;29;123379;-79
2023/08/11 01:02:51;;;;;;;;;;;;;;;20.40;47.26;101944.00;4839177;29;122496;-78
2023/08/11 01:05:19;;;;;;;;;;;;;;;20.38;47.19;101940.56;4840069;29;114676;-78
2023/08/11 01:08:05;;;;;;;;;;;;;;;20.37;47.33;101938.81;4835964;29;114016;-78
2023/08/11 01:10:37;;;;;;;;;;;;;;;20.35;47.28;101934.53;4835652;29;123534;-78
2023/08/11 01:13:07;;;;;;;;;;;;;;;20.32;47.26;101935.59;4839591;29;124710;-79
2023/08/11 01:15:40;;;;;;;;;;;;;;;20.31;47.35;101939.25;4853557;28;114112;-79
2023/08/11 01:18:08;;;;;;;;;;;;;;;20.28;47.43;101928.69;4839998;29;114791;-79
2023/08/11 01:20:36;;;;;;;;;;;;;;;20.28;47.37;101927.84;4838951;29;123539;-79
2023/08/11 01:23:04;;;;;;;;;;;;;;;20.23;47.16;101920.09;4839644;29;121856;-79
2023/08/11 01:25:32;;;;;;;;;;;;;;;20.21;47.46;101922.00;4839565;29;113302;-78
2023/08/11 01:28:00;;;;;;;;;;;;;;;20.18;47.56;101916.84;4831486;29;113991;-79
2023/08/11 01:30:27;;;;;;;;;;;;;;;20.18;47.54;101911.47;4837641;29;124712;-79
2023/08/11 01:32:56;;;;;;;;;;;;;;;20.16;47.44;101902.66;4834383;29;123631;-79
2023/08/11 01:35:24;;;;;;;;;;;;;;;20.15;47.60;101906.28;4835963;29;114182;-79
2023/08/11 01:38:08;;;;;;;;;;;;;;;20.14;47.62;101909.97;4850164;29;111768;-79
2023/08/11 01:40:35;;;;;;;;;;;;;;;20.13;47.50;101900.16;4834902;29;124759;-79
2023/08/11 01:43:05;;;;;;;;;;;;;;;20.13;47.53;101900.16;4835923;29;124455;-79
2023/08/11 01:45:32;;;;;;;;;;;;;;;20.11;47.61;101904.78;4822468;29;114529;-79
2023/08/11 01:47:59;;;;;;;;;;;;;;;20.11;47.72;101899.41;4838374;29;114170;-79
2023/08/11 01:50:27;;;;;;;;;;;;;;;20.11;47.74;101899.41;4839379;29;125344;-79
2023/08/11 01:52:55;;;;;;;;;;;;;;;20.11;47.74;101904.78;4836649;28;123100;-79
2023/08/11 01:55:24;;;;;;;;;;;;;;;20.11;47.63;101896.72;4839641;29;113990;-79
2023/08/11 01:57:52;;;;;;;;;;;;;;;20.11;47.62;101896.72;4822654;29;113237;-79
2023/08/11 02:00:27;;;;;;;;;;;;;;;20.11;47.72;101904.78;4825359;29;123519;-79
2023/08/11 02:02:55;;;;;;;;;;;;;;;20.10;47.67;101897.66;4836518;29;125594;-79
2023/08/11 02:05:24;;;;;;;;;;;;;;;20.09;47.67;101906.72;4848614;29;114235;-79
2023/08/11 02:07:52;;;;;;;;;;;;;;;20.07;47.70;101908.66;4841555;29;112738;-78
2023/08/11 02:10:20;;;;;;;;;;;;;;;20.06;47.76;101901.53;4836811;29;124258;-78
2023/08/11 02:12:50;;;;;;;;;;;;;;;20.06;47.81;101909.63;4833718;29;123657;-79
2023/08/11 02:15:17;;;;;;;;;;;;;;;20.05;47.66;101907.91;4835424;29;114489;-78
2023/08/11 02:17:44;;;;;;;;;;;;;;;20.03;47.69;101903.47;4831394;29;113956;-79
2023/08/11 02:22:48;;;;;;;;;;;;;;;20.00;47.78;101898.34;4837974;29;123865;-79
2023/08/11 02:25:15;;;;;;;;;;;;;;;19.98;47.70;101900.22;4838585;29;114706;-79
2023/08/11 02:27:43;;;;;;;;;;;;;;;19.96;47.77;101896.78;4837178;29;114521;-79
2023/08/11 02:30:12;;;;;;;;;;;;;;;19.91;47.76;101898.97;4834257;29;125022;-79
2023/08/11 02:32:39;;;;;;;;;;;;;;;19.87;47.98;101892.03;4836744;29;123518;-79
2023/08/11 02:35:07;;;;;;;;;;;;;;;19.83;47.76;101891.41;4821660;29;115282;-79
2023/08/11 02:37:34;;;;;;;;;;;;;;;19.81;47.84;101887.09;4851502;29;113740;-79
2023/08/11 02:40:01;;;;;;;;;;;;;;;19.76;48.04;101884.72;4838017;29;124332;-78
2023/08/11 02:42:28;;;;;;;;;;;;;;;19.73;47.85;101884.06;4849967;29;125323;-79
2023/08/11 02:44:54;;;;;;;;;;;;;;;19.71;48.04;101885.97;4838022;29;114464;-79
2023/08/11 02:47:21;;;;;;;;;;;;;;;19.69;48.00;101879.81;4837559;29;113469;-78
2023/08/11 02:49:50;;;;;;;;;;;;;;;19.68;47.97;101880.78;4821400;29;123689;-79
2023/08/11 02:52:17;;;;;;;;;;;;;;;19.67;48.11;101890.69;4823934;29;122932;-79
2023/08/11 02:54:44;;;;;;;;;;;;;;;19.67;47.99;101892.50;4839777;29;114018;-78
2023/08/11 02:57:11;;;;;;;;;;;;;;;19.63;48.14;101895.38;4855557;28;114729;-79
2023/08/11 02:59:38;;;;;;;;;;;;;;;19.64;48.09;101896.25;4831482;29;123105;-79
2023/08/11 03:02:07;;;;;;;;;;;;;;;19.65;48.11;101893.47;4830372;29;122024;-79
2023/08/11 03:04:36;;;;;;;;;;;;;;;19.64;48.07;101897.09;4835342;29;114122;-79
2023/08/11 03:07:05;;;;;;;;;;;;;;;19.63;48.07;101900.75;4834208;29;113105;-79
2023/08/11 03:09:33;;;;;;;;;;;;;;;19.62;47.96;101899.03;4853123;29;122336;-79
2023/08/11 03:12:00;;;;;;;;;;;;;;;19.62;48.07;101904.41;4838970;29;124827;-78
2023/08/11 03:14:28;;;;;;;;;;;;;;;19.60;48.09;101895.59;4838586;29;115561;-79
2023/08/11 03:16:55;;;;;;;;;;;;;;;19.59;48.03;101893.88;4836210;29;113136;-79
2023/08/11 03:19:22;;;;;;;;;;;;;;;19.56;48.17;101898.59;4833846;29;125546;-79
2023/08/11 03:21:49;;;;;;;;;;;;;;;19.55;48.17;101892.38;4854000;29;123724;-79
2023/08/11 03:24:16;;;;;;;;;;;;;;;19.53;48.21;101899.63;4838701;29;115463;-78
2023/08/11 03:26:43;;;;;;;;;;;;;;;19.51;48.31;101889.97;4838892;29;113267;-78
2023/08/11 03:29:11;;;;;;;;;;;;;;;19.49;48.22;101892.75;4823396;29;124426;-79
2023/08/11 03:31:39;;;;;;;;;;;;;;;19.48;48.33;101891.03;4820621;29;125069;-78
2023/08/11 03:34:07;;;;;;;;;;;;;;;19.48;48.30;101890.16;4835776;29;112677;-79
2023/08/11 03:36:34;;;;;;;;;;;;;;;19.45;48.18;101878.66;4836111;29;114048;-79
2023/08/11 03:39:02;;;;;;;;;;;;;;;19.45;48.26;101880.47;4835556;29;122819;-79
2023/08/11 03:41:29;;;;;;;;;;;;;;;19.43;48.31;101877.03;4837443;29;124690;-79
2023/08/11 03:43:57;;;;;;;;;;;;;;;19.40;48.29;101877.22;4837246;29;114063;-79
2023/08/11 03:46:24;;;;;;;;;;;;;;;19.39;48.40;101872.84;4849632;28;114760;-78
2023/08/11 03:48:52;;;;;;;;;;;;;;;19.36;48.31;101883.78;4820637;29;124089;-80
2023/08/11 03:51:19;;;;;;;;;;;;;;;19.35;48.32;101890.13;4823742;29;125257;-79
2023/08/11 03:53:47;;;;;;;;;;;;;;;19.33;48.47;101881.31;4837490;29;114260;-78
2023/08/11 03:56:14;;;;;;;;;;;;;;;19.33;48.46;101881.31;4828284;29;113149;-79
2023/08/11 03:58:45;;;;;;;;;;;;;;;19.32;48.35;101874.19;4834853;29;126657;-79
2023/08/11 04:01:12;;;;;;;;;;;;;;;19.30;48.46;101876.13;4838577;29;124006;-78
2023/08/11 04:03:42;;;;;;;;;;;;;;;19.31;48.41;101872.47;4852136;29;113397;-78
2023/08/11 04:06:10;;;;;;;;;;;;;;;19.29;48.44;101874.38;4855623;29;112349;-78
2023/08/11 04:08:38;;;;;;;;;;;;;;;19.26;48.37;101870.94;4857048;29;124045;-79
2023/08/11 04:11:05;;;;;;;;;;;;;;;19.24;48.47;101862.13;4821259;29;122793;-78
2023/08/11 04:13:32;;;;;;;;;;;;;;;19.22;48.61;101864.03;4836187;29;114879;-79
2023/08/11 04:15:59;;;;;;;;;;;;;;;19.20;48.50;101868.66;4820672;29;114078;-79
2023/08/11 04:18:26;;;;;;;;;;;;;;;19.19;48.66;101875.00;4846330;28;123624;-79
2023/08/11 04:20:53;;;;;;;;;;;;;;;19.18;48.55;101881.31;4836356;29;123219;-79
2023/08/11 04:23:20;;;;;;;;;;;;;;;19.16;48.68;101875.19;4829868;29;114155;-79
2023/08/11 04:25:47;;;;;;;;;;;;;;;19.16;48.58;101875.19;4837792;29;114146;-79
2023/08/11 04:28:15;;;;;;;;;;;;;;;19.15;48.55;101878.84;4853890;29;126032;-78
2023/08/11 04:30:42;;;;;;;;;;;;;;;19.14;48.56;101882.50;4838002;29;123071;-79
2023/08/11 04:33:12;;;;;;;;;;;;;;;19.11;48.57;101882.69;4851232;29;112195;-78
2023/08/11 04:35:40;;;;;;;;;;;;;;;19.11;48.60;101885.38;4839720;29;114889;-79
2023/08/11 04:38:07;;;;;;;;;;;;;;;19.10;48.82;101880.97;4853669;29;123559;-78
2023/08/11 04:40:37;;;;;;;;;;;;;;;19.10;48.72;101880.97;4835688;29;123839;-79
2023/08/11 04:43:04;;;;;;;;;;;;;;;19.10;48.75;101880.09;4840693;29;114583;-79
2023/08/11 04:45:36;;;;;;;;;;;;;;;19.10;48.96;101880.97;4835437;29;113532;-79
2023/08/11 04:48:04;;;;;;;;;;;;;;;19.11;48.74;101882.69;4822562;29;124443;-79
2023/08/11 04:50:33;;;;;;;;;;;;;;;19.13;48.83;101879.91;4821528;29;125264;-78
2023/08/11 04:53:00;;;;;;;;;;;;;;;19.14;48.83;101874.44;4832202;29;113114;-78
2023/08/11 04:55:27;;;;;;;;;;;;;;;19.15;48.97;101868.09;4837604;29;114091;-79
2023/08/11 04:57:54;;;;;;;;;;;;;;;19.17;49.07;101876.06;4846731;28;125010;-79
2023/08/11 05:00:22;;;;;;;;;;;;;;;19.17;48.90;101876.91;4823592;29;123350;-79
2023/08/11 05:02:52;;;;;;;;;;;;;;;19.18;49.03;101878.66;4838300;29;115861;-79
2023/08/11 05:05:19;;;;;;;;;;;;;;;19.18;48.97;101878.66;4822469;29;113512;-79
2023/08/11 05:07:46;;;;;;;;;;;;;;;19.20;48.96;101871.34;4828317;29;124292;-79
2023/08/11 05:10:13;;;;;;;;;;;;;;;19.21;49.10;101873.09;4838004;29;123849;-79
2023/08/11 05:12:41;;;;;;;;;;;;;;;19.22;48.96;101864.03;4837243;29;112446;-79
2023/08/11 05:15:08;;;;;;;;;;;;;;;19.24;48.97;101862.13;4838202;29;114438;-78
2023/08/11 05:17:35;;;;;;;;;;;;;;;19.26;48.96;101870.94;4852247;28;124102;-79
2023/08/11 05:20:06;;;;;;;;;;;;;;;19.26;49.01;101860.19;4837960;29;122890;-79
2023/08/11 05:22:36;;;;;;;;;;;;;;;19.29;49.15;101852.91;4827754;29;115036;-79
2023/08/11 05:25:04;;;;;;;;;;;;;;;19.30;49.08;101854.63;4827823;29;114075;-79
2023/08/11 05:27:31;;;;;;;;;;;;;;;19.31;49.26;101850.97;4835101;29;124644;-79
2023/08/11 05:29:58;;;;;;;;;;;;;;;19.34;49.13;101856.16;4827639;29;124509;-79
2023/08/11 05:32:26;;;;;;;;;;;;;;;19.38;49.29;101852.28;4832024;29;115297;-80
2023/08/11 05:34:55;;;;;;;;;;;;;;;19.42;49.21;101853.81;4841088;29;113423;-79
2023/08/11 05:37:24;;;;;;;;;;;;;;;19.44;49.18;101851.91;4836154;29;124508;-78
2023/08/11 05:39:52;;;;;;;;;;;;;;;19.48;49.22;101847.16;4852161;29;123948;-79
2023/08/11 05:42:19;;;;;;;;;;;;;;;19.52;49.29;101843.34;4828392;29;114428;-79
2023/08/11 05:44:46;;;;;;;;;;;;;;;19.56;49.36;101851.06;4828659;29;113370;-79
2023/08/11 05:47:13;;;;;;;;;;;;;;;19.62;49.34;101845.28;4837486;29;123502;-80
2023/08/11 05:49:40;;;;;;;;;;;;;;;19.68;49.46;101848.53;4834317;29;123992;-79
2023/08/11 05:52:07;;;;;;;;;;;;;;;19.73;49.45;101846.44;4832668;29;115639;-79
2023/08/11 05:54:34;;;;;;;;;;;;;;;19.79;49.53;101836.09;4823810;29;113370;-79
2023/08/11 05:57:01;;;;;;;;;;;;;;;19.85;49.43;101840.19;4842201;29;122935;-79
2023/08/11 05:59:28;;;;;;;;;;;;;;;19.92;49.61;101844.19;4840127;29;123039;-80
2023/08/11 06:01:55;;;;;;;;;;;;;;;19.99;49.43;101837.44;4833070;29;114687;-79
2023/08/11 06:04:22;;;;;;;;;;;;;;;20.05;49.63;101844.22;4837257;29;111888;-79
2023/08/11 06:06:49;;;;;;;;;;;;;;;20.12;49.64;101845.53;4820707;29;124927;-79
2023/08/11 06:09:16;;;;;;;;;;;;;;;20.19;49.63;101843.25;4833190;29;124069;-79
2023/08/11 06:11:43;;;;;;;;;;;;;;;20.27;49.60;101845.41;4831996;29;114074;-79
2023/08/11 06:14:09;;;;;;;;;;;;;;;20.34;49.60;101850.25;4840203;29;114396;-79
2023/08/11 06:16:36;;;;;;;;;;;;;;;20.40;49.64;101847.13;4838129;29;124739;-80
2023/08/11 06:19:03;;;;;;;;;;;;;;;20.49;49.63;101850.13;4840827;29;123655;-80
2023/08/11 06:21:30;;;;;;;;;;;;;;;20.55;49.59;101844.31;4837506;29;113393;-80
2023/08/11 06:23:57;;;;;;;;;;;;;;;20.66;49.74;101852.50;4837720;29;113243;-80
2023/08/11 06:26:24;;;;;;;;;;;;;;;20.74;49.68;101850.13;4851843;29;124461;-79
2023/08/11 06:28:51;;;;;;;;;;;;;;;20.84;49.56;101852.19;4838976;29;124343;-79
2023/08/11 06:31:19;;;;;;;;;;;;;;;20.92;49.64;101857.84;4839464;29;115935;-80
2023/08/11 06:33:47;;;;;;;;;;;;;;;21.02;49.63;101853.53;4839217;29;114361;-79
2023/08/11 06:36:14;;;;;;;;;;;;;;;21.13;49.60;101847.34;4843920;28;125099;-80
2023/08/11 06:38:41;;;;;;;;;;;;;;;21.22;49.65;101849.34;4833700;29;124338;-80
2023/08/11 06:41:08;;;;;;;;;;;;;;;21.34;49.69;101852.97;4836585;29;114641;-79
2023/08/11 06:43:35;;;;;;;;;;;;;;;21.46;49.65;101860.16;4853876;29;114304;-80
2023/08/11 06:46:02;;;;;;;;;;;;;;;21.60;49.76;101859.13;4829578;29;124515;-80
2023/08/11 06:48:29;;;;;;;;;;;;;;;21.72;49.80;101854.66;4822280;29;123242;-79
2023/08/11 06:50:56;;;;;;;;;;;;;;;21.85;49.78;101852.72;4836937;29;114216;-80
2023/08/11 06:53:24;;;;;;;;;;;;;;;21.99;49.72;101858.91;4839000;29;113795;-80
2023/08/11 06:55:51;;;;;;;;;;;;;;;22.15;49.76;101859.41;4837931;29;124710;-80
2023/08/11 06:58:18;;;;;;;;;;;;;;;22.29;49.74;101856.53;4834560;29;124294;-79
2023/08/11 07:00:45;;;;;;;;;;;;;;;22.44;49.65;101859.00;4832892;29;114792;-80
2023/08/11 07:03:12;;;;;;;;;;;;;;;22.58;49.65;101856.03;4831027;29;114200;-80
2023/08/11 07:05:39;;;;;;;;;;;;;;;22.74;49.78;101851.13;4832300;29;124909;-80
2023/08/11 07:08:06;;;;;;;;;;;;;;;22.90;49.60;101855.28;4831980;29;124198;-80
2023/08/11 07:10:33;;;;;;;;;;;;;;;23.05;49.72;101859.47;4837936;29;114315;-80
2023/08/11 07:13:00;;;;;;;;;;;;;;;23.20;49.83;101867.31;4830745;29;112820;-79
2023/08/11 07:15:27;;;;;;;;;;;;;;;23.37;49.84;101858.66;4835704;29;124393;-80
2023/08/11 07:17:54;;;;;;;;;;;;;;;23.55;49.92;101868.94;4833945;29;124226;-80
2023/08/11 07:20:21;;;;;;;;;;;;;;;23.72;49.77;101868.38;4839596;29;115016;-80
2023/08/11 07:22:48;;;;;;;;;;;;;;;23.89;49.61;101870.53;4828791;29;113510;-79
2023/08/11 07:25:15;;;;;;;;;;;;;;;24.07;49.63;101872.63;4826892;29;124139;-80
2023/08/11 07:27:42;;;;;;;;;;;;;;;24.24;49.71;101872.06;4833293;29;125682;-80
2023/08/11 07:30:09;;;;;;;;;;;;;;;24.43;49.82;101878.53;4839874;29;114489;-79
2023/08/11 07:32:36;;;;;;;;;;;;;;;24.62;49.46;101873.28;4840466;29;113804;-80
2023/08/11 07:35:05;;;;;;;;;;;;;;;24.80;49.26;101864.50;4839016;29;123753;-80
2023/08/11 07:37:32;;;;;;;;;;;;;;;24.96;49.53;101867.53;4832383;29;123396;-80
2023/08/11 07:39:59;;;;;;;;;;;;;;;25.12;49.16;101874.28;4815071;29;113249;-80
2023/08/11 07:42:26;;;;;;;;;;;;;;;25.29;49.41;101870.91;4839736;29;113849;-79
2023/08/11 07:44:53;;;;;;;;;;;;;;;25.48;49.36;101863.81;4836358;29;123863;-79
2023/08/11 07:47:20;;;;;;;;;;;;;;;25.67;49.07;101871.94;4832438;29;125391;-79
2023/08/11 07:49:47;;;;;;;;;;;;;;;25.82;49.08;101873.25;4855466;29;114101;-80
2023/08/11 07:52:14;;;;;;;;;;;;;;;25.98;49.29;101871.81;4841071;29;114093;-80
2023/08/11 07:54:41;;;;;;;;;;;;;;;26.13;49.12;101875.78;4854248;29;124839;-80
2023/08/11 07:57:09;;;;;;;;;;;;;;;26.30;49.16;101870.63;4830049;29;123878;-80
2023/08/11 07:59:36;;;;;;;;;;;;;;;26.45;49.01;101874.56;4838711;29;114583;-80
2023/08/11 08:02:03;;;;;;;;;;;;;;;26.55;48.71;101875.38;4853987;29;113607;-79
2023/08/11 08:04:31;;;;;;;;;;;;;;;26.65;48.97;101869.09;4853454;29;122548;-79
2023/08/11 08:06:58;;;;;;;;;;;;;;;26.77;48.61;101867.91;4851850;29;123963;-80
2023/08/11 08:09:25;;;;;;;;;;;;;;;26.90;48.58;101864.78;4844183;29;114975;-79
2023/08/11 08:11:52;;;;;;;;;;;;;;;27.02;48.69;101870.91;4848713;29;115393;-80
2023/08/11 08:14:19;;;;;;;;;;;;;;;27.16;48.88;101873.09;4840368;29;123797;-80
2023/08/11 08:16:46;;;;;;;;;;;;;;;27.32;48.86;101867.88;4828684;29;123876;-80
2023/08/11 08:19:14;;;;;;;;;;;;;;;27.48;48.63;101861.75;4836013;29;114418;-80
2023/08/11 08:21:42;;;;;;;;;;;;;;;27.62;48.37;101876.66;4840781;29;114349;-80
2023/08/11 08:24:09;;;;;;;;;;;;;;;27.75;48.50;101868.97;4841231;29;124237;-80
2023/08/11 08:26:36;;;;;;;;;;;;;;;27.92;48.66;101877.28;4841031;29;124877;-80
2023/08/11 08:29:03;;;;;;;;;;;;;;;28.01;48.11;101873.63;4840545;29;114762;-80
2023/08/11 08:31:30;;;;;;;;;;;;;;;28.08;48.07;101873.84;4841230;29;113650;-80
2023/08/11 08:33:58;;;;;;;;;;;;;;;28.20;48.44;101866.25;4841050;29;124023;-80
2023/08/11 08:36:25;;;;;;;;;;;;;;;28.31;48.16;101874.16;4841179;29;124448;-80
2023/08/11 08:38:52;;;;;;;;;;;;;;;28.37;47.95;101868.06;4837572;29;114677;-80
2023/08/11 08:41:23;;;;;;;;;;;;;;;28.44;47.93;101869.13;4836835;29;114013;-80
2023/08/11 08:43:51;;;;;;;;;;;;;;;28.52;47.90;101871.94;4838382;29;124256;-80
2023/08/11 08:46:20;;;;;;;;;;;;;;;28.63;48.15;101867.19;4838378;29;124340;-80
2023/08/11 08:49:10;;;;;;;;;;;;;;;28.75;47.92;101865.06;4851456;29;113458;-81
2023/08/11 08:51:39;;;;;;;;;;;;;;;28.88;47.89;101871.75;4828312;29;113279;-81
2023/08/11 08:54:09;;;;;;;;;;;;;;;28.99;47.67;101867.00;4836214;29;125157;-80
2023/08/11 08:56:37;;;;;;;;;;;;;;;29.09;47.85;101862.28;4827934;29;124427;-80
2023/08/11 08:59:04;;;;;;;;;;;;;;;29.20;47.72;101864.72;4838292;29;113986;-80
2023/08/11 09:01:31;;;;;;;;;;;;;;;29.31;47.50;101867.13;4836325;29;114379;-80
2023/08/11 09:03:58;;;;;;;;;;;;;;;29.40;47.47;101864.41;4826379;29;124838;-80
2023/08/11 09:06:26;;;;;;;;;;;;;;;29.50;47.60;101859.66;4836313;29;123546;-79
2023/08/11 09:08:53;;;;;;;;;;;;;;;29.60;47.58;101854.88;4838239;29;115210;-80
2023/08/11 09:11:21;;;;;;;;;;;;;;;29.69;47.47;101864.78;4818991;29;114469;-80
2023/08/11 09:13:48;;;;;;;;;;;;;;;29.78;47.27;101862.06;4835359;29;125632;-80
2023/08/11 09:16:15;;;;;;;;;;;;;;;29.85;47.23;101868.56;4850320;29;124386;-80
2023/08/11 09:18:43;;;;;;;;;;;;;;;29.94;47.30;101867.53;4838082;29;113497;-80
2023/08/11 09:21:11;;;;;;;;;;;;;;;30.03;47.16;101863.78;4834469;29;114037;-80
2023/08/11 09:23:38;;;;;;;;;;;;;;;30.11;47.32;101868.38;4836518;29;123516;-79
2023/08/11 09:26:05;;;;;;;;;;;;;;;30.22;47.02;101864.44;4833372;29;123951;-80
2023/08/11 09:28:32;;;;;;;;;;;;;;;30.31;46.89;101863.38;4835082;29;114536;-80
2023/08/11 09:30:59;;;;;;;;;;;;;;;30.37;46.99;101857.25;4827566;29;113967;-80
2023/08/11 09:33:26;;;;;;;;;;;;;;;30.46;46.83;101855.34;4830932;29;125160;-80
2023/08/11 09:35:53;;;;;;;;;;;;;;;30.53;46.90;101856.31;4834211;29;124388;-79
2023/08/11 09:38:20;;;;;;;;;;;;;;;30.63;46.66;101856.13;4834860;29;114399;-79
2023/08/11 09:40:50;;;;;;;;;;;;;;;30.69;46.72;101855.41;4829692;29;114501;-80
2023/08/11 09:43:17;;;;;;;;;;;;;;;30.79;46.75;101847.00;4832487;29;124737;-80
2023/08/11 09:45:44;;;;;;;;;;;;;;;30.86;46.85;101857.03;4835986;29;124062;-80
2023/08/11 09:48:11;;;;;;;;;;;;;;;30.94;46.60;101852.59;4836198;29;113632;-80
2023/08/11 09:50:39;;;;;;;;;;;;;;;31.04;46.52;101853.22;4835422;29;112753;-80
2023/08/11 09:53:07;;;;;;;;;;;;;;;31.13;46.54;101852.13;4836390;29;124286;-80
2023/08/11 09:55:36;;;;;;;;;;;;;;;31.21;46.52;101853.97;4828574;29;124072;-80
2023/08/11 09:58:03;;;;;;;;;;;;;;;31.27;46.10;101852.38;4833310;29;115363;-79
2023/08/11 10:00:31;;;;;;;;;;;;;;;31.33;46.41;101857.16;4836628;29;115688;-80
2023/08/11 10:03:09;;;;;;;;;;;;;;;31.39;46.10;101845.47;4829540;29;124904;-80
2023/08/11 10:05:40;;;;;;;;;;;;;;;31.45;46.10;101850.22;4835946;29;124246;-80
2023/08/11 10:08:09;;;;;;;;;;;;;;;31.50;46.31;101847.81;4835911;29;113718;-80
2023/08/11 10:10:37;;;;;;;;;;;;;;;31.56;46.19;101841.59;4828519;29;114638;-80
2023/08/11 10:13:21;;;;;;;;;;;;;;;31.63;45.89;101848.03;4833466;29;124817;-79
2023/08/11 10:15:50;;;;;;;;;;;;;;;31.72;46.15;101845.22;4827701;29;124867;-80
2023/08/11 10:18:17;;;;;;;;;;;;;;;31.81;46.15;101850.44;4847178;29;114414;-79
2023/08/11 10:20:46;;;;;;;;;;;;;;;31.88;45.78;101850.56;4835225;29;114187;-80
2023/08/11 10:23:13;;;;;;;;;;;;;;;31.94;45.78;101847.06;4822639;29;124762;-80
2023/08/11 10:25:40;;;;;;;;;;;;;;;32.03;45.58;101847.03;4833700;29;124909;-80
2023/08/11 10:28:10;;;;;;;;;;;;;;;32.06;45.93;101846.66;4851652;29;113715;-80
2023/08/11 10:30:37;;;;;;;;;;;;;;;32.08;45.76;101844.56;4833874;29;112973;-80
2023/08/11 10:33:04;;;;;;;;;;;;;;;32.10;45.30;101853.44;4834596;29;123631;-80
2023/08/11 10:35:49;;;;;;;;;;;;;;;32.14;45.52;101860.28;4833045;29;124117;-80
2023/08/11 10:38:27;;;;;;;;;;;;;;;32.19;45.67;101852.34;4828419;29;114629;-80
2023/08/11 10:41:02;;;;;;;;;;;;;;;32.24;45.29;101841.66;4830676;29;114988;-80
2023/08/11 10:43:33;;;;;;;;;;;;;;;32.27;45.59;101844.03;4834242;29;124362;-80
2023/08/11 10:46:17;;;;;;;;;;;;;;;32.28;45.11;101848.47;4834486;29;124543;-80
2023/08/11 10:48:44;;;;;;;;;;;;;;;32.30;45.49;101840.91;4836686;29;115262;-80
2023/08/11 10:51:25;;;;;;;;;;;;;;;32.30;45.38;101843.63;4837931;29;116040;-79
2023/08/11 10:53:54;;;;;;;;;;;;;;;32.32;45.06;101836.06;4838155;29;124682;-80
2023/08/11 10:56:28;;;;;;;;;;;;;;;32.35;45.24;101840.34;4838048;29;123064;-80
2023/08/11 10:59:03;;;;;;;;;;;;;;;32.37;45.45;101836.38;4827630;29;114349;-79
2023/08/11 11:01:31;;;;;;;;;;;;;;;32.43;45.46;101833.91;4820580;29;112827;-80
2023/08/11 11:03:59;;;;;;;;;;;;;;;32.46;44.90;101836.28;4834111;29;123348;-80
2023/08/11 11:06:26;;;;;;;;;;;;;;;32.50;44.96;101838.44;4834195;29;124085;-80
2023/08/11 11:08:53;;;;;;;;;;;;;;;32.54;44.98;101838.91;4837029;29;114075;-80
2023/08/11 11:11:20;;;;;;;;;;;;;;;32.60;44.91;101838.19;4837981;29;114242;-79
2023/08/11 11:13:47;;;;;;;;;;;;;;;32.66;45.03;101837.41;4840824;29;124167;-78
2023/08/11 11:16:14;;;;;;;;;;;;;;;32.71;45.05;101839.59;4838579;29;122722;-79
2023/08/11 11:18:42;;;;;;;;;;;;;;;32.75;45.06;101836.25;4831523;29;114371;-79
2023/08/11 11:21:12;;;;;;;;;;;;;;;32.77;44.89;101839.66;4835481;29;113243;-79
2023/08/11 11:23:49;;;;;;;;;;;;;;;32.81;44.71;101836.53;4847904;29;123250;-79
2023/08/11 11:26:21;;;;;;;;;;;;;;;32.86;45.08;101842.31;4830526;29;124893;-78
2023/08/11 11:28:48;;;;;;;;;;;;;;;32.91;44.80;101828.88;4852533;29;113676;-79
2023/08/11 11:31:16;;;;;;;;;;;;;;;32.96;44.62;101838.22;4833934;29;113633;-79
2023/08/11 11:33:43;;;;;;;;;;;;;;;33.00;44.48;101833.16;4835749;29;124124;-79
2023/08/11 11:36:11;;;;;;;;;;;;;;;33.02;44.64;101831.09;4832802;29;123906;-79
2023/08/11 11:38:39;;;;;;;;;;;;;;;33.09;44.92;101823.78;4831238;29;115459;-79
2023/08/11 11:41:11;;;;;;;;;;;;;;;33.17;44.79;101828.31;4821698;29;113688;-79
2023/08/11 11:43:41;;;;;;;;;;;;;;;33.24;44.78;101829.25;4837150;29;123235;-79
2023/08/11 11:46:16;;;;;;;;;;;;;;;33.32;44.36;101825.50;4837119;29;124158;-79
2023/08/11 11:48:50;;;;;;;;;;;;;;;33.38;44.58;101819.25;4826917;29;114449;-79
2023/08/11 11:51:25;;;;;;;;;;;;;;;33.43;44.57;101822.25;4839675;29;113489;-79
2023/08/11 11:53:54;;;;;;;;;;;;;;;33.49;44.23;101829.72;4834970;29;124522;-79
2023/08/11 11:56:21;;;;;;;;;;;;;;;33.54;44.51;101823.63;4833561;29;123700;-79
2023/08/11 11:58:48;;;;;;;;;;;;;;;33.58;44.22;101824.06;4851076;29;114121;-78
2023/08/11 12:01:20;;;;;;;;;;;;;;;33.62;44.31;101817.13;4851153;29;113099;-78
2023/08/11 12:03:47;;;;;;;;;;;;;;;33.63;43.88;101816.09;4849004;29;122351;-78
2023/08/11 12:06:17;;;;;;;;;;;;;;;33.65;44.05;101808.53;4835812;29;122580;-78
2023/08/11 12:08:45;;;;;;;;;;;;;;;33.68;43.86;101816.34;4838767;29;114732;-79
2023/08/11 12:11:15;;;;;;;;;;;;;;;33.73;43.98;101811.97;4833116;29;96880;-79
2023/08/11 12:13:43;;;;;;;;;;;;;;;33.77;44.16;101806.91;4853791;29;124967;-79
2023/08/11 12:16:13;;;;;;;;;;;;;;;33.80;43.84;101806.53;4837128;29;124589;-79
2023/08/11 12:18:41;;;;;;;;;;;;;;;33.82;44.11;101814.59;4841159;29;114168;-79
2023/08/11 12:21:09;;;;;;;;;;;;;;;33.81;44.14;101808.22;4840164;29;114209;-79
2023/08/11 12:23:36;;;;;;;;;;;;;;;33.83;43.63;101811.63;4838022;29;124536;-78
2023/08/11 12:26:04;;;;;;;;;;;;;;;33.86;43.90;101815.88;4829540;29;124661;-78
2023/08/11 12:28:31;;;;;;;;;;;;;;;33.91;43.85;101813.38;4835732;29;115807;-79
2023/08/11 12:30:58;;;;;;;;;;;;;;;33.97;43.88;101817.22;4836676;29;114553;-78
2023/08/11 12:33:25;;;;;;;;;;;;;;;34.01;43.90;101807.53;4835441;29;123438;-79
2023/08/11 12:35:52;;;;;;;;;;;;;;;34.06;43.64;101810.53;4828493;29;124439;-79